createdAt,value
2019-02-04T00:01:16.562Z,6.33
2019-02-04T00:03:45.771Z,4.90
2019-02-04T00:06:15.130Z,5.57
2019-02-04T00:08:44.317Z,5.83
2019-02-04T00:11:13.561Z,6.00
2019-02-04T00:13:42.719Z,5.70
2019-02-04T00:16:11.941Z,5.67
2019-02-04T00:18:41.129Z,5.10
2019-02-04T00:21:10.284Z,5.63
2019-02-04T00:23:39.513Z,5.17
2019-02-04T00:26:08.703Z,5.90
2019-02-04T00:28:37.890Z,5.47
2019-02-04T00:31:07.362Z,5.17
2019-02-04T00:33:36.982Z,4.90
2019-02-04T00:36:06.183Z,5.57
2019-02-04T00:38:35.404Z,4.90
2019-02-04T00:41:04.549Z,5.07
2019-02-04T00:43:33.769Z,5.07
2019-02-04T00:46:02.946Z,4.70
2019-02-04T00:48:32.551Z,5.37
2019-02-04T00:51:01.785Z,4.90
2019-02-04T00:53:31.226Z,4.80
2019-02-04T00:56:00.426Z,5.00
2019-02-04T00:58:29.638Z,5.07
2019-02-04T01:00:58.881Z,4.80
2019-02-04T01:03:28.593Z,4.57
2019-02-04T01:05:57.788Z,4.53
2019-02-04T01:08:26.960Z,4.63
2019-02-04T01:10:56.217Z,4.90
2019-02-04T01:13:25.391Z,4.47
2019-02-04T01:15:54.602Z,4.33
2019-02-04T01:18:23.909Z,4.70
2019-02-04T01:20:53.149Z,5.00
2019-02-04T01:23:22.360Z,4.97
2019-02-04T01:25:51.535Z,4.03
2019-02-04T01:28:20.723Z,4.40
2019-02-04T01:30:49.924Z,4.17
2019-02-04T01:33:19.117Z,4.57
2019-02-04T01:35:48.321Z,3.90
2019-02-04T01:38:17.504Z,4.43
2019-02-04T01:40:46.687Z,4.27
2019-02-04T01:43:15.902Z,4.30
2019-02-04T01:45:45.515Z,4.13
2019-02-04T01:48:14.771Z,4.10
2019-02-04T01:50:44.011Z,4.10
2019-02-04T01:53:13.177Z,4.07
2019-02-04T01:55:42.365Z,4.00
2019-02-04T01:58:11.563Z,4.20
2019-02-04T02:00:41.017Z,4.23
2019-02-04T02:03:10.278Z,3.83
2019-02-04T02:05:39.429Z,4.10
2019-02-04T02:08:09.059Z,3.40
2019-02-04T02:10:38.292Z,4.20
2019-02-04T02:13:07.486Z,3.90
2019-02-04T02:15:36.702Z,3.73
2019-02-04T02:18:05.914Z,4.00
2019-02-04T02:20:35.093Z,3.97
2019-02-04T02:23:04.321Z,3.97
2019-02-04T02:25:33.496Z,3.57
2019-02-04T02:28:02.715Z,3.93
2019-02-04T02:30:33.172Z,4.33
2019-02-04T02:33:02.330Z,3.87
2019-02-04T02:35:31.535Z,3.60
2019-02-04T02:38:00.742Z,3.57
2019-02-04T02:40:31.964Z,3.50
2019-02-04T02:43:01.914Z,3.57
2019-02-04T02:45:31.192Z,3.37
2019-02-04T02:48:00.676Z,3.43
2019-02-04T02:50:29.858Z,3.57
2019-02-04T02:52:59.061Z,3.13
2019-02-04T02:55:28.547Z,3.80
2019-02-04T02:57:58.349Z,3.23
2019-02-04T03:00:28.579Z,2.83
2019-02-04T03:02:57.805Z,3.10
2019-02-04T03:05:27.192Z,3.13
2019-02-04T03:07:56.377Z,3.40
2019-02-04T03:10:27.592Z,3.70
2019-02-04T03:12:56.806Z,3.57
2019-02-04T03:15:26.026Z,3.37
2019-02-04T03:17:55.237Z,2.77
2019-02-04T03:20:24.420Z,3.43
2019-02-04T03:22:53.610Z,3.30
2019-02-04T03:25:23.645Z,3.17
2019-02-04T03:27:52.873Z,3.00
2019-02-04T03:30:29.867Z,3.23
2019-02-04T03:32:59.057Z,2.97
2019-02-04T03:35:28.249Z,3.23
2019-02-04T03:37:57.860Z,3.37
2019-02-04T03:40:29.067Z,3.23
2019-02-04T03:42:58.319Z,3.17
2019-02-04T03:45:27.464Z,3.07
2019-02-04T03:48:07.008Z,3.30
2019-02-04T03:50:27.599Z,3.27
2019-02-04T03:52:56.788Z,3.00
2019-02-04T03:55:25.971Z,2.53
2019-02-04T03:57:55.175Z,3.33
2019-02-04T04:00:26.751Z,3.00
2019-02-04T04:02:55.984Z,2.97
2019-02-04T04:05:25.693Z,2.90
2019-02-04T04:07:54.888Z,2.93
2019-02-04T04:10:24.072Z,2.37
2019-02-04T04:12:53.302Z,2.80
2019-02-04T04:15:22.553Z,2.67
2019-02-04T04:17:51.748Z,2.87
2019-02-04T04:20:21.644Z,2.97
2019-02-04T04:22:50.838Z,2.67
2019-02-04T04:25:20.061Z,2.70
2019-02-04T04:27:49.275Z,2.63
2019-02-04T04:30:20.581Z,2.40
2019-02-04T04:32:49.765Z,2.73
2019-02-04T04:35:19.047Z,2.83
2019-02-04T04:37:48.296Z,2.77
2019-02-04T04:40:17.530Z,2.80
2019-02-04T04:42:46.744Z,2.70
2019-02-04T04:45:17.966Z,2.30
2019-02-04T04:47:47.238Z,2.63
2019-02-04T04:50:16.452Z,2.53
2019-02-04T04:52:45.735Z,2.93
2019-02-04T04:55:17.364Z,2.60
2019-02-04T04:57:46.524Z,2.30
2019-02-04T05:00:17.975Z,2.33
2019-02-04T05:02:47.242Z,2.20
2019-02-04T05:05:16.434Z,2.87
2019-02-04T05:07:45.656Z,2.60
2019-02-04T05:10:16.647Z,2.63
2019-02-04T05:12:45.882Z,2.50
2019-02-04T05:15:17.512Z,2.70
2019-02-04T05:17:46.968Z,2.40
2019-02-04T05:20:17.829Z,2.50
2019-02-04T05:22:47.067Z,2.60
2019-02-04T05:25:16.265Z,2.20
2019-02-04T05:27:45.473Z,2.60
2019-02-04T05:30:22.122Z,2.57
2019-02-04T05:32:51.426Z,2.00
2019-02-04T05:35:20.664Z,2.40
2019-02-04T05:37:49.918Z,2.20
2019-02-04T05:40:19.463Z,2.70
2019-02-04T05:42:48.934Z,3.63
2019-02-04T05:45:18.958Z,3.20
2019-02-04T05:47:48.166Z,2.80
2019-02-04T05:50:18.585Z,2.70
2019-02-04T05:52:47.981Z,2.40
2019-02-04T05:55:18.453Z,2.90
2019-02-04T05:57:47.724Z,2.43
2019-02-04T06:00:20.987Z,2.40
2019-02-04T06:02:50.254Z,2.77
2019-02-04T06:05:19.901Z,2.53
2019-02-04T06:07:49.449Z,2.30
2019-02-04T06:10:19.689Z,2.50
2019-02-04T06:12:48.846Z,2.40
2019-02-04T06:15:18.122Z,2.73
2019-02-04T06:17:47.317Z,3.00
2019-02-04T06:20:18.056Z,3.07
2019-02-04T06:22:47.236Z,3.03
2019-02-04T06:25:16.434Z,3.43
2019-02-04T06:27:45.659Z,5.20
2019-02-04T06:30:14.929Z,5.00
2019-02-04T06:32:44.174Z,6.30
2019-02-04T06:35:13.414Z,6.03
2019-02-04T06:37:42.654Z,6.50
2019-02-04T06:40:12.797Z,7.27
2019-02-04T06:42:42.022Z,7.17
2019-02-04T06:45:12.354Z,12.07
2019-02-04T06:47:41.521Z,11.83
2019-02-04T06:50:12.645Z,10.70
2019-02-04T06:52:42.306Z,12.13
2019-02-04T06:55:14.608Z,11.60
2019-02-04T06:57:43.776Z,13.27
2019-02-04T07:00:13.781Z,13.60
2019-02-04T07:02:43.066Z,14.30
2019-02-04T07:05:12.240Z,14.73
2019-02-04T07:07:41.417Z,6.87
2019-02-04T07:10:13.281Z,7.90
2019-02-04T07:12:42.434Z,11.33
2019-02-04T07:15:11.673Z,13.80
2019-02-04T07:17:41.221Z,11.27
2019-02-04T07:20:13.328Z,11.50
2019-02-04T07:22:42.525Z,11.17
2019-02-04T07:25:12.169Z,11.73
2019-02-04T07:27:41.359Z,12.00
2019-02-04T07:30:13.509Z,11.97
2019-02-04T07:32:42.692Z,12.53
2019-02-04T07:35:12.837Z,16.33
2019-02-04T07:37:42.009Z,12.03
2019-02-04T07:40:17.354Z,14.27
2019-02-04T07:42:46.740Z,14.67
2019-02-04T07:45:15.899Z,16.37
2019-02-04T07:47:45.125Z,18.40
2019-02-04T07:50:14.342Z,16.50
2019-02-04T07:52:43.522Z,18.23
2019-02-04T07:55:12.745Z,17.37
2019-02-04T07:57:41.952Z,16.63
2019-02-04T08:00:17.627Z,14.63
2019-02-04T08:02:47.548Z,14.53
2019-02-04T08:05:16.694Z,15.17
2019-02-04T08:07:45.910Z,16.50
2019-02-04T08:10:15.176Z,17.40
2019-02-04T08:12:44.371Z,15.13
2019-02-04T08:15:22.478Z,14.43
2019-02-04T08:17:51.668Z,13.90
2019-02-04T08:20:22.727Z,11.40
2019-02-04T08:22:51.693Z,12.43
2019-02-04T08:25:20.934Z,12.10
2019-02-04T08:27:50.122Z,12.40
2019-02-04T08:30:24.977Z,11.13
2019-02-04T08:32:54.121Z,12.20
2019-02-04T08:35:23.332Z,11.60
2019-02-04T08:37:52.559Z,11.87
2019-02-04T08:40:21.756Z,11.53
2019-02-04T08:42:50.975Z,13.10
2019-02-04T08:45:20.225Z,12.00
2019-02-04T08:47:49.468Z,12.27
2019-02-04T08:50:19.406Z,10.87
2019-02-04T08:52:48.642Z,11.90
2019-02-04T08:55:17.791Z,10.73
2019-02-04T08:57:47.130Z,11.80
2019-02-04T09:00:18.741Z,10.43
2019-02-04T09:02:47.914Z,11.10
2019-02-04T09:05:17.324Z,11.63
2019-02-04T09:07:46.541Z,11.53
2019-02-04T09:10:18.371Z,11.63
2019-02-04T09:12:47.624Z,10.97
2019-02-04T09:15:16.855Z,12.03
2019-02-04T09:17:46.994Z,11.03
2019-02-04T09:20:16.830Z,11.50
2019-02-04T09:22:46.025Z,11.20
2019-02-04T09:25:16.043Z,12.27
2019-02-04T09:27:45.260Z,12.70
2019-02-04T09:30:16.809Z,11.80
2019-02-04T09:32:46.120Z,11.77
2019-02-04T09:35:16.338Z,12.33
2019-02-04T09:37:45.501Z,11.63
2019-02-04T09:40:18.260Z,11.17
2019-02-04T09:42:47.922Z,12.43
2019-02-04T09:45:18.289Z,11.17
2019-02-04T09:47:47.573Z,11.03
2019-02-04T09:50:21.777Z,10.87
2019-02-04T09:52:49.578Z,10.87
2019-02-04T09:55:24.171Z,11.60
2019-02-04T09:57:53.503Z,10.83
2019-02-04T10:00:24.708Z,10.33
2019-02-04T10:02:53.898Z,10.17
2019-02-04T10:05:24.804Z,7.97
2019-02-04T10:07:54.034Z,8.00
2019-02-04T10:10:27.357Z,8.30
2019-02-04T10:12:56.635Z,8.00
2019-02-04T10:15:31.559Z,8.63
2019-02-04T10:18:01.905Z,8.33
2019-02-04T10:20:34.048Z,8.47
2019-02-04T10:23:02.244Z,8.17
2019-02-04T10:25:33.380Z,8.40
2019-02-04T10:28:02.624Z,7.60
2019-02-04T10:30:31.777Z,8.90
2019-02-04T10:33:01.020Z,8.17
2019-02-04T10:35:30.574Z,9.20
2019-02-04T10:37:59.745Z,9.10
2019-02-04T10:40:29.157Z,8.90
2019-02-04T10:42:58.359Z,8.53
2019-02-04T10:45:27.579Z,8.30
2019-02-04T10:47:57.669Z,8.47
2019-02-04T10:50:29.590Z,8.47
2019-02-04T10:52:58.839Z,9.10
2019-02-04T10:55:28.040Z,9.37
2019-02-04T10:57:57.221Z,8.03
2019-02-04T11:00:27.908Z,7.97
2019-02-04T11:02:57.061Z,8.70
2019-02-04T11:05:28.124Z,9.67
2019-02-04T11:07:57.438Z,7.83
2019-02-04T11:10:33.673Z,9.33
2019-02-04T11:13:03.513Z,8.93
2019-02-04T11:15:32.692Z,9.00
2019-02-04T11:18:02.265Z,8.00
2019-02-04T11:20:31.446Z,9.43
2019-02-04T11:23:00.726Z,8.67
2019-02-04T11:25:29.920Z,8.57
2019-02-04T11:27:59.065Z,6.93
2019-02-04T11:30:33.762Z,7.83
2019-02-04T11:33:02.950Z,6.40
2019-02-04T11:35:32.201Z,13.00
2019-02-04T11:38:01.414Z,10.30
2019-02-04T11:40:35.854Z,10.37
2019-02-04T11:43:05.347Z,9.40
2019-02-04T11:45:34.506Z,8.70
2019-02-04T11:48:04.547Z,9.40
2019-02-04T11:50:33.785Z,8.83
2019-02-04T11:53:03.005Z,9.00
2019-02-04T11:55:32.213Z,9.07
2019-02-04T11:58:01.419Z,9.23
2019-02-04T12:00:30.667Z,8.60
2019-02-04T12:03:00.325Z,9.60
2019-02-04T12:05:29.615Z,8.53
2019-02-04T12:07:58.817Z,8.97
2019-02-04T12:10:40.263Z,8.30
2019-02-04T12:13:09.414Z,8.00
2019-02-04T12:15:38.638Z,8.53
2019-02-04T12:18:07.854Z,8.90
2019-02-04T12:20:39.826Z,8.23
2019-02-04T12:23:07.905Z,8.60
2019-02-04T12:25:37.604Z,8.13
2019-02-04T12:28:07.905Z,7.90
2019-02-04T12:30:38.865Z,7.90
2019-02-04T12:33:09.953Z,8.03
2019-02-04T12:35:39.149Z,7.80
2019-02-04T12:38:08.399Z,8.20
2019-02-04T12:40:37.974Z,7.60
2019-02-04T12:43:07.198Z,7.27
2019-02-04T12:45:36.677Z,7.00
2019-02-04T12:48:06.074Z,7.43
2019-02-04T12:50:35.317Z,6.10
2019-02-04T12:53:04.763Z,6.63
2019-02-04T12:55:34.354Z,6.57
2019-02-04T12:58:03.532Z,6.70
2019-02-04T13:00:32.754Z,6.53
2019-02-04T13:03:01.929Z,6.50
2019-02-04T13:05:36.538Z,6.50
2019-02-04T13:08:07.497Z,6.13
2019-02-04T13:10:36.686Z,6.60
2019-02-04T13:13:08.876Z,6.47
2019-02-04T13:15:38.194Z,5.93
2019-02-04T13:18:07.454Z,5.70
2019-02-04T13:20:36.682Z,6.27
2019-02-04T13:23:05.812Z,5.57
2019-02-04T13:25:35.091Z,6.30
2019-02-04T13:28:04.526Z,6.13
2019-02-04T13:30:33.715Z,6.23
2019-02-04T13:33:02.988Z,5.43
2019-02-04T13:35:32.160Z,5.27
2019-02-04T13:38:01.389Z,5.20
2019-02-04T13:40:30.851Z,4.93
2019-02-04T13:46:26.878Z,5.20
2019-02-04T13:48:56.125Z,5.50
2019-02-04T13:51:25.285Z,5.43
2019-02-04T13:53:57.175Z,5.30
2019-02-04T13:56:25.910Z,5.10
2019-02-04T13:58:55.084Z,4.90
2019-02-04T14:01:24.313Z,4.97
2019-02-04T14:03:53.476Z,5.00
2019-02-04T14:06:22.676Z,4.33
2019-02-04T14:08:52.422Z,4.80
2019-02-04T14:11:21.670Z,4.83
2019-02-04T14:13:50.943Z,4.80
2019-02-04T14:16:20.123Z,4.10
2019-02-04T14:18:49.334Z,4.40
2019-02-04T14:21:18.691Z,4.67
2019-02-04T14:23:47.842Z,4.37
2019-02-04T14:26:17.057Z,4.47
2019-02-04T14:28:46.290Z,4.50
2019-02-04T14:31:15.435Z,3.67
2019-02-04T14:33:44.965Z,4.23
2019-02-04T14:36:14.634Z,3.90
2019-02-04T14:38:43.823Z,4.53
2019-02-04T14:41:13.029Z,4.40
2019-02-04T14:43:59.154Z,4.30
2019-02-04T14:46:50.420Z,3.97
2019-02-04T14:50:04.741Z,4.57
2019-02-04T14:53:03.778Z,4.20
2019-02-04T14:55:48.680Z,3.50
2019-02-04T14:58:48.730Z,3.70
2019-02-04T15:01:58.038Z,4.07
2019-02-04T15:04:37.670Z,4.10
2019-02-04T15:08:05.434Z,3.60
2019-02-04T15:10:52.366Z,4.13
2019-02-04T15:13:42.013Z,4.47
2019-02-04T15:16:26.681Z,4.77
2019-02-04T15:19:39.555Z,4.23
2019-02-04T15:22:59.178Z,4.03
2019-02-04T15:26:09.590Z,4.27
2019-02-04T15:28:57.319Z,3.80
2019-02-04T15:32:16.838Z,4.03
2019-02-04T15:35:22.964Z,4.27
2019-02-04T15:38:29.465Z,4.07
2019-02-04T15:41:12.598Z,3.80
2019-02-04T15:44:26.366Z,3.93
2019-02-04T15:47:24.171Z,3.90
2019-02-04T15:50:27.027Z,4.40
2019-02-04T15:52:56.229Z,3.73
2019-02-04T15:55:25.562Z,3.87
2019-02-04T15:57:54.762Z,3.93
2019-02-04T16:00:23.942Z,3.80
2019-02-04T16:02:53.156Z,4.00
2019-02-04T16:05:23.073Z,4.37
2019-02-04T16:07:52.230Z,3.50
2019-02-04T16:10:21.431Z,4.50
2019-02-04T16:12:50.662Z,3.70
2019-02-04T16:15:19.837Z,3.90
2019-02-04T16:17:49.261Z,4.00
2019-02-04T16:20:21.453Z,3.90
2019-02-04T16:22:58.729Z,3.70
2019-02-04T16:25:21.513Z,3.90
2019-02-04T16:27:50.755Z,3.57
2019-02-04T16:30:21.045Z,3.57
2019-02-04T16:32:52.786Z,4.17
2019-02-04T16:35:21.079Z,3.80
2019-02-04T16:37:50.458Z,3.60
2019-02-04T16:40:21.113Z,3.33
2019-02-04T16:42:50.287Z,3.27
2019-02-04T16:45:20.559Z,3.30
2019-02-04T16:47:50.299Z,3.53
2019-02-04T16:50:21.922Z,3.10
2019-02-04T16:52:51.131Z,3.10
2019-02-04T16:55:20.318Z,3.23
2019-02-04T16:57:49.521Z,3.20
2019-02-04T17:00:21.123Z,3.20
2019-02-04T17:02:50.768Z,3.07
2019-02-04T17:05:20.479Z,3.33
2019-02-04T17:07:49.653Z,2.80
2019-02-04T17:10:19.878Z,3.30
2019-02-04T17:12:49.116Z,3.23
2019-02-04T17:15:18.242Z,3.50
2019-02-04T17:17:47.899Z,3.07
2019-02-04T17:20:19.777Z,3.43
2019-02-04T17:22:48.978Z,2.90
2019-02-04T17:25:18.314Z,3.00
2019-02-04T17:27:47.475Z,2.70
2019-02-04T17:30:21.015Z,2.97
2019-02-04T17:32:50.216Z,2.83
2019-02-04T17:35:21.874Z,2.40
2019-02-04T17:37:51.137Z,2.30
2019-02-04T17:40:21.449Z,2.53
2019-02-04T17:42:50.679Z,2.50
2019-02-04T17:45:19.870Z,2.40
2019-02-04T17:47:49.564Z,2.33
2019-02-04T17:50:19.562Z,2.47
2019-02-04T17:52:48.857Z,2.40
2019-02-04T17:55:19.869Z,2.30
2019-02-04T17:57:49.377Z,2.20
2019-02-04T18:00:25.264Z,2.27
2019-02-04T18:02:54.451Z,2.13
2019-02-04T18:05:23.702Z,2.10
2019-02-04T18:07:52.886Z,2.10
2019-02-04T18:10:22.095Z,2.30
2019-02-04T18:12:51.457Z,2.30
2019-02-04T18:15:20.634Z,2.47
2019-02-04T18:17:49.901Z,2.20
2019-02-04T18:20:19.111Z,2.73
2019-02-04T18:22:48.301Z,2.33
2019-02-04T18:25:17.528Z,2.70
2019-02-04T18:27:46.690Z,2.50
2019-02-04T18:30:17.555Z,2.40
2019-02-04T18:32:46.765Z,2.50
2019-02-04T18:35:15.959Z,2.67
2019-02-04T18:37:45.202Z,2.63
2019-02-04T18:40:15.399Z,2.50
2019-02-04T18:42:44.918Z,2.80
2019-02-04T18:45:18.199Z,2.67
2019-02-04T18:47:47.643Z,2.40
2019-02-04T18:50:17.060Z,2.50
2019-02-04T18:52:46.850Z,2.77
2019-02-04T18:55:18.306Z,2.83
2019-02-04T18:57:48.130Z,2.70
2019-02-04T19:00:19.809Z,2.83
2019-02-04T19:02:49.174Z,2.80
2019-02-04T19:05:18.846Z,2.60
2019-02-04T19:07:48.103Z,2.80
2019-02-04T19:10:18.357Z,2.50
2019-02-04T19:12:47.650Z,2.40
2019-02-04T19:15:18.311Z,3.20
2019-02-04T19:17:48.355Z,3.23
2019-02-04T19:20:19.740Z,2.80
2019-02-04T19:22:49.012Z,2.87
2019-02-04T19:25:18.605Z,3.47
2019-02-04T19:27:48.289Z,2.90
2019-02-04T19:30:26.637Z,3.10
2019-02-04T19:32:56.492Z,3.50
2019-02-04T19:35:25.770Z,3.80
2019-02-04T19:37:54.975Z,4.00
2019-02-04T19:40:24.234Z,3.70
2019-02-04T19:42:53.893Z,4.17
2019-02-04T19:45:23.069Z,4.10
2019-02-04T19:47:53.454Z,4.10
2019-02-04T19:50:25.149Z,3.50
2019-02-04T19:52:54.337Z,3.60
2019-02-04T19:55:23.618Z,3.70
2019-02-04T19:57:52.896Z,3.70
2019-02-04T20:00:22.118Z,4.30
2019-02-04T20:02:51.847Z,4.40
2019-02-04T20:05:23.735Z,3.30
2019-02-04T20:07:53.033Z,3.80
2019-02-04T20:10:23.733Z,4.03
2019-02-04T20:12:52.940Z,4.07
2019-02-04T20:15:24.315Z,3.57
2019-02-04T20:17:53.646Z,4.30
2019-02-04T20:20:22.831Z,4.23
2019-02-04T20:22:52.053Z,4.83
2019-02-04T20:25:23.266Z,5.00
2019-02-04T20:27:52.481Z,4.40
2019-02-04T20:30:27.581Z,4.57
2019-02-04T20:32:56.766Z,4.20
2019-02-04T20:35:26.006Z,4.40
2019-02-04T20:37:55.599Z,4.80
2019-02-04T20:40:25.053Z,4.87
2019-02-04T20:42:54.485Z,5.00
2019-02-04T20:45:24.295Z,4.60
2019-02-04T20:47:53.573Z,4.90
2019-02-04T20:50:25.330Z,5.20
2019-02-04T20:52:54.597Z,4.87
2019-02-04T20:55:23.840Z,4.90
2019-02-04T20:57:52.989Z,5.43
2019-02-04T21:00:24.694Z,5.40
2019-02-04T21:02:54.028Z,5.70
2019-02-04T21:05:23.286Z,6.10
2019-02-04T21:07:52.984Z,6.50
2019-02-04T21:10:23.144Z,6.13
2019-02-04T21:12:52.434Z,7.17
2019-02-04T21:15:22.362Z,6.63
2019-02-04T21:17:51.630Z,7.30
2019-02-04T21:20:22.873Z,7.63
2019-02-04T21:22:52.116Z,6.70
2019-02-04T21:25:21.317Z,7.70
2019-02-04T21:27:51.090Z,7.97
2019-02-04T21:30:25.344Z,7.97
2019-02-04T21:32:54.537Z,7.93
2019-02-04T21:35:23.809Z,5.93
2019-02-04T21:37:52.974Z,7.40
2019-02-04T21:40:22.182Z,6.17
2019-02-04T21:42:51.462Z,6.50
2019-02-04T21:45:20.994Z,5.23
2019-02-04T21:47:50.196Z,6.63
2019-02-04T21:50:20.973Z,5.90
2019-02-04T21:52:50.155Z,6.40
2019-02-04T21:55:19.766Z,8.90
2019-02-04T21:57:48.959Z,10.10
2019-02-04T22:00:23.358Z,9.07
2019-02-04T22:02:52.582Z,8.47
2019-02-04T22:05:23.514Z,7.53
2019-02-04T22:07:52.733Z,7.70
2019-02-04T22:10:23.339Z,7.87
2019-02-04T22:12:52.552Z,8.07
2019-02-04T22:15:21.732Z,7.07
2019-02-04T22:17:50.931Z,7.67
2019-02-04T22:20:20.146Z,7.70
2019-02-04T22:22:49.365Z,7.17
2019-02-04T22:25:20.293Z,7.90
2019-02-04T22:27:49.560Z,6.97
2019-02-04T22:30:23.689Z,6.53
2019-02-04T22:32:52.893Z,7.00
2019-02-04T22:35:22.102Z,7.27
2019-02-04T22:37:51.309Z,6.30
2019-02-04T22:40:25.899Z,7.03
2019-02-04T22:42:55.123Z,7.00
2019-02-04T22:45:24.286Z,6.13
2019-02-04T22:47:53.477Z,5.87
2019-02-04T22:50:27.842Z,6.30
2019-02-04T22:52:57.990Z,6.40
2019-02-04T22:55:32.066Z,6.13
2019-02-04T22:57:58.047Z,6.03
2019-02-04T23:00:49.192Z,5.80
2019-02-04T23:03:20.249Z,5.90
2019-02-04T23:05:49.449Z,5.33
2019-02-04T23:08:18.650Z,5.70
2019-02-04T23:10:47.857Z,5.60
2019-02-04T23:13:17.039Z,5.20
2019-02-04T23:15:46.581Z,5.50
2019-02-04T23:18:15.782Z,5.10
2019-02-04T23:20:44.970Z,4.77
2019-02-04T23:23:14.206Z,5.67
2019-02-04T23:25:43.960Z,4.90
2019-02-04T23:28:13.320Z,5.20
2019-02-04T23:30:42.496Z,5.23
2019-02-04T23:33:11.711Z,4.87
2019-02-04T23:35:40.901Z,5.20
2019-02-04T23:38:10.106Z,4.90
2019-02-04T23:40:39.293Z,4.70
2019-02-04T23:43:08.535Z,4.40
2019-02-04T23:45:37.698Z,4.27
2019-02-04T23:48:06.957Z,4.57
2019-02-04T23:50:36.161Z,4.30
2019-02-04T23:53:05.451Z,3.87
2019-02-04T23:55:35.049Z,4.27
2019-02-04T23:58:04.485Z,3.87
